createdAt,value
2022-12-11T00:00:55.896Z,98548.31
2022-12-11T00:03:59.017Z,98549.16
2022-12-11T00:07:02.380Z,98532.69
2022-12-11T00:10:06.172Z,98539.47
2022-12-11T00:13:09.232Z,98543.59
2022-12-11T00:16:13.056Z,98537.53
2022-12-11T00:19:18.932Z,98534.81
2022-12-11T00:22:21.858Z,98529.59
2022-12-11T00:25:24.353Z,98532.13
2022-12-11T00:28:28.075Z,98537.31
2022-12-11T00:31:31.950Z,98525.22
2022-12-11T00:34:35.146Z,98525.16
2022-12-11T00:37:38.667Z,98512.16
2022-12-11T00:40:50.625Z,98524.97
2022-12-11T00:43:53.586Z,98519.81
2022-12-11T00:46:56.353Z,98524.09
2022-12-11T00:49:59.318Z,98527.31
2022-12-11T00:53:04.737Z,98523.81
2022-12-11T00:56:18.720Z,98534.84
2022-12-11T00:59:23.736Z,98533.03
2022-12-11T01:02:30.742Z,98526.06
2022-12-11T01:05:33.941Z,98532.78
2022-12-11T01:08:39.020Z,98535.28
2022-12-11T01:11:43.022Z,98550.59
2022-12-11T01:14:45.656Z,98559.97
2022-12-11T01:17:49.051Z,98559.78
2022-12-11T01:20:51.920Z,98557.09
2022-12-11T01:23:54.735Z,98554.28
2022-12-11T01:26:57.354Z,98569.59
2022-12-11T01:30:08.524Z,98565.28
2022-12-11T01:33:11.988Z,98577.03
2022-12-11T01:36:19.997Z,98575.19
2022-12-11T01:39:22.853Z,98570.03
2022-12-11T01:42:26.522Z,98568.19
2022-12-11T01:45:47.620Z,98570.66
2022-12-11T01:48:50.937Z,98578.28
2022-12-11T01:52:01.058Z,98584.09
2022-12-11T01:55:04.516Z,98588.31
2022-12-11T01:58:10.302Z,98586.56
2022-12-11T02:01:21.979Z,98580.44
2022-12-11T02:04:26.109Z,98588.75
2022-12-11T02:07:34.860Z,98571.53
2022-12-11T02:10:50.396Z,98567.16
2022-12-11T02:14:03.890Z,98575.63
2022-12-11T02:17:16.353Z,98583.28
2022-12-11T02:20:27.099Z,98578.84
2022-12-11T02:23:39.101Z,98563.38
2022-12-11T02:27:04.053Z,98576.16
2022-12-11T02:30:07.504Z,98576.88
2022-12-11T02:33:12.895Z,98566.53
2022-12-11T02:36:18.230Z,98555.13
2022-12-11T02:39:24.779Z,98557.72
2022-12-11T02:42:31.396Z,98568.00
2022-12-11T02:45:35.626Z,98562.81
2022-12-11T02:48:41.731Z,98561.72
2022-12-11T02:51:44.640Z,98559.13
2022-12-11T02:54:49.575Z,98570.25
2022-12-11T02:58:09.773Z,98565.88
2022-12-11T03:01:12.798Z,98565.94
2022-12-11T03:04:16.161Z,98551.25
2022-12-11T03:07:25.378Z,98565.81
2022-12-11T03:10:28.279Z,98565.00
2022-12-11T03:13:32.068Z,98568.50
2022-12-11T03:16:42.856Z,98568.37
2022-12-11T03:20:06.567Z,98564.94
2022-12-11T03:23:17.688Z,98566.59
2022-12-11T03:26:22.945Z,98560.56
2022-12-11T03:29:36.765Z,98563.09
2022-12-11T03:32:51.864Z,98557.94
2022-12-11T03:35:59.555Z,98551.00
2022-12-11T03:39:12.947Z,98557.06
2022-12-11T03:42:19.040Z,98562.09
2022-12-11T03:45:23.589Z,98563.84
2022-12-11T03:48:31.088Z,98563.81
2022-12-11T03:51:36.349Z,98562.03
2022-12-11T03:54:42.111Z,98562.03
2022-12-11T03:57:45.356Z,98567.91
2022-12-11T04:00:48.201Z,98567.03
2022-12-11T04:03:51.240Z,98562.69
2022-12-11T04:06:54.580Z,98563.56
2022-12-11T04:09:57.679Z,98567.84
2022-12-11T04:13:00.188Z,98568.63
2022-12-11T04:16:02.947Z,98570.38
2022-12-11T04:19:24.883Z,98576.28
2022-12-11T04:22:46.994Z,98583.09
2022-12-11T04:25:50.013Z,98597.66
2022-12-11T04:28:53.229Z,98595.91
2022-12-11T04:31:55.682Z,98590.53
2022-12-11T04:34:58.318Z,98588.03
2022-12-11T04:38:01.625Z,98610.28
2022-12-11T04:41:14.427Z,98606.84
2022-12-11T04:44:17.972Z,98618.00
2022-12-11T04:47:24.000Z,98618.88
2022-12-11T04:50:27.462Z,98643.00
2022-12-11T04:53:30.789Z,98645.28
2022-12-11T04:56:33.622Z,98630.78
2022-12-11T04:59:38.357Z,98641.12
2022-12-11T05:02:42.440Z,98649.78
2022-12-11T05:05:53.956Z,98652.28
2022-12-11T05:08:56.395Z,98659.06
2022-12-11T05:11:59.397Z,98661.69
2022-12-11T05:15:02.606Z,98654.97
2022-12-11T05:18:06.234Z,98659.19
2022-12-11T05:21:12.544Z,98655.66
2022-12-11T05:24:15.638Z,98666.06
2022-12-11T05:27:19.077Z,98672.78
2022-12-11T05:30:21.925Z,98667.81
2022-12-11T05:33:24.951Z,98652.28
2022-12-11T05:36:33.435Z,98657.41
2022-12-11T05:39:43.141Z,98654.03
2022-12-11T05:42:46.724Z,98650.53
2022-12-11T05:45:49.587Z,98656.59
2022-12-11T05:48:56.678Z,98666.00
2022-12-11T05:52:02.400Z,98667.75
2022-12-11T05:55:06.855Z,98662.50
2022-12-11T05:58:09.800Z,98667.53
2022-12-11T06:01:19.005Z,98667.72
2022-12-11T06:04:22.683Z,98673.66
2022-12-11T06:07:26.672Z,98684.69
2022-12-11T06:10:30.118Z,98700.19
2022-12-11T06:13:33.743Z,98704.34
2022-12-11T06:16:40.329Z,98704.34
2022-12-11T06:19:49.204Z,98718.94
2022-12-11T06:22:52.794Z,98719.69
2022-12-11T06:25:56.652Z,98733.66
2022-12-11T06:29:00.588Z,98723.19
2022-12-11T06:32:07.158Z,98734.34
2022-12-11T06:35:13.916Z,98746.44
2022-12-11T06:38:21.141Z,98749.97
2022-12-11T06:41:26.301Z,98745.56
2022-12-11T06:44:30.905Z,98749.97
2022-12-11T06:47:37.186Z,98757.59
2022-12-11T06:50:40.458Z,98764.50
2022-12-11T06:53:44.592Z,98769.66
2022-12-11T06:56:47.820Z,98781.63
2022-12-11T06:59:51.022Z,98776.41
2022-12-11T07:03:04.164Z,98778.06
2022-12-11T07:06:14.781Z,98778.22
2022-12-11T07:09:22.995Z,98769.59
2022-12-11T07:12:26.252Z,98788.63
2022-12-11T07:15:29.605Z,98769.75
2022-12-11T07:18:34.894Z,98777.53
2022-12-11T07:21:40.919Z,98787.81
2022-12-11T07:24:44.799Z,98788.00
2022-12-11T07:27:52.002Z,98788.19
2022-12-11T07:31:01.889Z,98798.66
2022-12-11T07:34:07.957Z,98803.84
2022-12-11T07:37:12.143Z,98825.34
2022-12-11T07:40:21.079Z,98838.34
2022-12-11T07:43:26.223Z,98842.72
2022-12-11T07:46:37.824Z,98843.59
2022-12-11T07:49:49.476Z,98851.44
2022-12-11T07:52:54.957Z,98861.72
2022-12-11T07:56:00.159Z,98866.81
2022-12-11T07:59:06.454Z,98875.41
2022-12-11T08:02:12.100Z,98879.84
2022-12-11T08:05:20.411Z,98885.12
2022-12-11T08:08:31.986Z,98894.59
2022-12-11T08:11:39.746Z,98893.06
2022-12-11T08:14:45.198Z,98909.44
2022-12-11T08:17:50.076Z,98916.38
2022-12-11T08:20:57.583Z,98922.47
2022-12-11T08:24:09.911Z,98921.66
2022-12-11T08:27:15.353Z,98914.13
2022-12-11T08:30:25.377Z,98909.91
2022-12-11T08:33:31.146Z,98924.09
2022-12-11T08:36:47.073Z,98936.13
2022-12-11T08:39:51.312Z,98941.41
2022-12-11T08:42:57.638Z,98945.84
2022-12-11T08:46:07.767Z,98939.88
2022-12-11T08:49:12.899Z,98938.00
2022-12-11T08:52:23.092Z,98953.47
2022-12-11T08:55:30.769Z,98946.59
2022-12-11T08:58:43.495Z,98954.28
2022-12-11T09:01:50.711Z,98954.34
2022-12-11T09:04:57.971Z,98957.47
2022-12-11T09:08:08.147Z,98956.66
2022-12-11T09:11:33.551Z,98959.34
2022-12-11T09:14:48.914Z,98943.84
2022-12-11T09:17:53.655Z,98940.34
2022-12-11T09:21:08.644Z,98955.84
2022-12-11T09:24:14.559Z,98950.50
2022-12-11T09:27:24.547Z,98965.56
2022-12-11T09:30:42.619Z,98964.06
2022-12-11T09:33:56.770Z,98955.34
2022-12-11T09:37:12.620Z,98959.59
2022-12-11T09:40:15.980Z,98961.34
2022-12-11T09:43:37.836Z,98956.28
2022-12-11T09:46:44.712Z,98958.84
2022-12-11T09:50:08.726Z,98954.47
2022-12-11T09:53:31.031Z,98957.16
2022-12-11T09:56:58.114Z,98948.03
2022-12-11T10:00:32.801Z,98933.59
2022-12-11T10:03:50.608Z,98935.28
2022-12-11T10:07:21.832Z,98931.88
2022-12-11T10:10:51.854Z,98949.22
2022-12-11T10:14:16.961Z,98943.88
2022-12-11T10:17:29.159Z,98964.47
2022-12-11T10:20:40.412Z,98975.47
2022-12-11T10:23:51.755Z,99012.91
2022-12-11T10:27:00.649Z,98986.16
2022-12-11T10:30:17.725Z,98980.00
2022-12-11T10:34:20.468Z,98978.38
2022-12-11T10:37:29.590Z,98974.03
2022-12-11T10:40:36.527Z,98976.69
2022-12-11T10:43:56.573Z,98997.16
2022-12-11T10:47:14.617Z,99001.09
2022-12-11T10:50:28.640Z,99000.22
2022-12-11T10:53:46.643Z,99016.53
2022-12-11T10:56:54.606Z,99007.12
2022-12-11T11:00:00.959Z,98995.06
2022-12-11T11:03:08.047Z,99001.97
2022-12-11T11:06:19.551Z,98991.97
2022-12-11T11:09:54.530Z,98998.69
2022-12-11T11:13:03.837Z,98994.72
2022-12-11T11:16:16.620Z,98987.19
2022-12-11T11:19:30.064Z,98982.56
2022-12-11T11:22:41.602Z,98980.34
2022-12-11T11:26:02.520Z,98976.81
2022-12-11T11:29:27.041Z,98993.97
2022-12-11T11:32:36.729Z,99005.53
2022-12-11T11:35:52.882Z,99013.50
2022-12-11T11:39:26.476Z,99017.66
2022-12-11T11:42:49.088Z,99018.28
2022-12-11T11:46:00.437Z,99011.25
2022-12-11T11:49:21.021Z,99023.19
2022-12-11T11:53:01.820Z,99026.53
2022-12-11T11:56:24.782Z,99012.72
2022-12-11T11:59:44.584Z,99029.03
2022-12-11T12:03:06.499Z,99030.72
2022-12-11T12:06:20.543Z,99030.72
2022-12-11T12:09:49.621Z,99040.19
2022-12-11T12:13:30.175Z,99043.84
2022-12-11T12:16:53.011Z,99055.72
2022-12-11T12:20:28.894Z,99059.91
2022-12-11T12:23:37.565Z,99061.69
2022-12-11T12:27:00.425Z,99071.84
2022-12-11T12:30:23.326Z,99061.69
2022-12-11T12:33:53.561Z,99049.69
2022-12-11T12:37:31.674Z,99058.09
2022-12-11T12:40:55.884Z,99059.84
2022-12-11T12:44:24.781Z,99064.25
2022-12-11T12:47:34.802Z,99077.19
2022-12-11T12:50:53.850Z,99082.25
2022-12-11T12:54:12.570Z,99100.03
2022-12-11T12:57:25.460Z,99111.41
2022-12-11T13:00:44.407Z,99127.66
2022-12-11T13:03:57.587Z,99127.78
2022-12-11T13:07:29.633Z,99135.50
2022-12-11T13:10:54.889Z,99121.88
2022-12-11T13:14:07.978Z,99133.06
2022-12-11T13:17:21.515Z,99151.97
2022-12-11T13:20:35.861Z,99140.66
2022-12-11T13:23:41.338Z,99141.53
2022-12-11T13:26:57.518Z,99140.66
2022-12-11T13:30:15.475Z,99144.09
2022-12-11T13:33:28.540Z,99144.91
2022-12-11T13:36:41.570Z,99150.94
2022-12-11T13:40:05.524Z,99155.28
2022-12-11T13:43:21.780Z,99164.75
2022-12-11T13:46:34.181Z,99170.66
2022-12-11T13:50:09.413Z,99168.97
2022-12-11T13:53:24.146Z,99164.50
2022-12-11T13:56:35.619Z,99163.63
2022-12-11T13:59:44.735Z,99173.03
2022-12-11T14:02:52.117Z,99185.91
2022-12-11T14:06:02.691Z,99194.44
2022-12-11T14:09:09.745Z,99194.31
2022-12-11T14:12:26.608Z,99211.56
2022-12-11T14:15:35.610Z,99208.94
2022-12-11T14:18:46.567Z,99209.59
2022-12-11T14:22:11.104Z,99215.69
2022-12-11T14:25:26.114Z,99214.63
2022-12-11T14:28:45.452Z,99217.88
2022-12-11T14:31:56.412Z,99223.63
2022-12-11T14:35:18.233Z,99229.66
2022-12-11T14:38:37.577Z,99229.50
2022-12-11T14:41:49.098Z,99235.41
2022-12-11T14:45:32.786Z,99234.38
2022-12-11T14:49:08.563Z,99246.28
2022-12-11T14:52:26.186Z,99250.38
2022-12-11T14:55:38.657Z,99256.34
2022-12-11T14:58:54.214Z,99246.78
2022-12-11T15:02:32.674Z,99256.13
2022-12-11T15:05:55.744Z,99263.63
2022-12-11T15:09:18.602Z,99267.81
2022-12-11T15:12:24.541Z,99268.56
2022-12-11T15:15:30.724Z,99276.13
2022-12-11T15:18:43.336Z,99262.44
2022-12-11T15:21:48.274Z,99274.06
2022-12-11T15:24:55.470Z,99284.44
2022-12-11T15:28:08.896Z,99287.72
2022-12-11T15:31:31.081Z,99282.38
2022-12-11T15:35:04.485Z,99293.53
2022-12-11T15:38:29.524Z,99288.31
2022-12-11T15:41:34.927Z,99294.28
2022-12-11T15:44:45.112Z,99291.56
2022-12-11T15:47:59.578Z,99304.34
2022-12-11T15:51:18.482Z,99301.78
2022-12-11T15:54:30.590Z,99297.28
2022-12-11T15:57:45.625Z,99290.38
2022-12-11T16:00:53.508Z,99294.50
2022-12-11T16:04:13.993Z,99284.94
2022-12-11T16:07:26.518Z,99312.47
2022-12-11T16:10:32.747Z,99311.47
2022-12-11T16:13:43.539Z,99316.53
2022-12-11T16:16:55.655Z,99320.94
2022-12-11T16:20:11.473Z,99325.91
2022-12-11T16:23:26.580Z,99321.50
2022-12-11T16:26:36.091Z,99321.44
2022-12-11T16:29:46.533Z,99323.13
2022-12-11T16:33:04.807Z,99326.50
2022-12-11T16:36:18.743Z,99324.81
2022-12-11T16:39:35.584Z,99321.13
2022-12-11T16:42:49.404Z,99331.50
2022-12-11T16:45:59.638Z,99337.31
2022-12-11T16:49:14.824Z,99330.34
2022-12-11T16:52:27.539Z,99326.97
2022-12-11T16:55:42.534Z,99331.88
2022-12-11T16:58:53.710Z,99333.72
2022-12-11T17:02:04.254Z,99331.06
2022-12-11T17:05:16.884Z,99331.00
2022-12-11T17:08:22.510Z,99331.72
2022-12-11T17:11:38.387Z,99332.53
2022-12-11T17:14:53.108Z,99320.72
2022-12-11T17:18:01.084Z,99321.28
2022-12-11T17:21:16.503Z,99320.56
2022-12-11T17:24:28.495Z,99319.53
2022-12-11T17:27:35.721Z,99316.72
2022-12-11T17:30:45.678Z,99329.81
2022-12-11T17:33:51.864Z,99328.13
2022-12-11T17:37:09.465Z,99329.56
2022-12-11T17:40:27.988Z,99327.72
2022-12-11T17:43:36.942Z,99326.94
2022-12-11T17:46:47.688Z,99326.94
2022-12-11T17:49:55.130Z,99316.50
2022-12-11T17:53:09.796Z,99321.72
2022-12-11T17:56:21.590Z,99332.06
2022-12-11T17:59:44.544Z,99321.56
2022-12-11T18:02:56.516Z,99336.09
2022-12-11T18:06:23.493Z,99331.69
2022-12-11T18:09:36.452Z,99344.59
2022-12-11T18:12:53.863Z,99349.75
2022-12-11T18:16:14.666Z,99352.06
2022-12-11T18:19:27.575Z,99353.59
2022-12-11T18:22:37.556Z,99359.69
2022-12-11T18:25:47.832Z,99363.06
2022-12-11T18:29:07.022Z,99365.72
2022-12-11T18:32:31.386Z,99380.25
2022-12-11T18:35:44.432Z,99371.59
2022-12-11T18:39:01.950Z,99375.91
2022-12-11T18:42:33.436Z,99377.44
2022-12-11T18:45:49.613Z,99372.94
2022-12-11T18:49:00.378Z,99378.00
2022-12-11T18:52:21.366Z,99381.53
2022-12-11T18:55:28.954Z,99380.72
2022-12-11T18:58:39.496Z,99387.47
2022-12-11T19:01:52.509Z,99395.97
2022-12-11T19:05:11.078Z,99401.13
2022-12-11T19:08:18.747Z,99394.06
2022-12-11T19:11:27.552Z,99403.53
2022-12-11T19:14:42.437Z,99405.28
2022-12-11T19:18:01.354Z,99399.28
2022-12-11T19:21:14.466Z,99411.16
2022-12-11T19:24:28.479Z,99408.50
2022-12-11T19:27:35.711Z,99418.78
2022-12-11T19:30:49.570Z,99416.22
2022-12-11T19:33:56.835Z,99418.69
2022-12-11T19:37:03.313Z,99414.44
2022-12-11T19:40:15.472Z,99416.94
2022-12-11T19:43:26.107Z,99425.50
2022-12-11T19:46:39.601Z,99432.34
2022-12-11T19:49:51.461Z,99429.59
2022-12-11T19:53:00.669Z,99433.06
2022-12-11T19:56:11.354Z,99434.81
2022-12-11T19:59:18.270Z,99432.25
2022-12-11T20:02:24.587Z,99439.00
2022-12-11T20:05:42.520Z,99434.56
2022-12-11T20:08:50.571Z,99442.19
2022-12-11T20:11:58.100Z,99435.28
2022-12-11T20:15:11.784Z,99430.88
2022-12-11T20:18:23.552Z,99430.78
2022-12-11T20:21:35.440Z,99432.28
2022-12-11T20:24:42.762Z,99448.47
2022-12-11T20:27:52.006Z,99449.38
2022-12-11T20:31:20.677Z,99457.69
2022-12-11T20:34:38.233Z,99452.47
2022-12-11T20:37:54.410Z,99449.66
2022-12-11T20:40:59.748Z,99449.75
2022-12-11T20:44:13.479Z,99444.44
2022-12-11T20:47:23.481Z,99460.56
2022-12-11T20:50:30.068Z,99467.37
2022-12-11T20:53:46.371Z,99468.91
2022-12-11T20:56:58.416Z,99481.47
2022-12-11T21:00:11.792Z,99488.13
2022-12-11T21:03:21.823Z,99486.59
2022-12-11T21:06:38.880Z,99492.38
2022-12-11T21:09:43.454Z,99496.69
2022-12-11T21:12:52.850Z,99486.97
2022-12-11T21:15:57.436Z,99498.84
2022-12-11T21:19:05.516Z,99489.91
2022-12-11T21:22:09.239Z,99489.91
2022-12-11T21:25:19.003Z,99487.97
2022-12-11T21:28:34.949Z,99495.66
2022-12-11T21:31:40.452Z,99488.59
2022-12-11T21:34:51.337Z,99498.94
2022-12-11T21:38:02.451Z,99499.47
2022-12-11T21:41:10.707Z,99512.28
2022-12-11T21:47:42.598Z,99523.25
2022-12-11T21:50:46.683Z,99531.50
2022-12-11T21:53:53.132Z,99531.41
2022-12-11T21:56:57.479Z,99528.63
2022-12-11T22:00:17.315Z,99524.38
2022-12-11T22:03:26.513Z,99531.19
2022-12-11T22:06:30.470Z,99530.47
2022-12-11T22:09:34.668Z,99531.09
2022-12-11T22:12:39.496Z,99535.53
2022-12-11T22:15:47.221Z,99538.69
2022-12-11T22:18:53.988Z,99533.41
2022-12-11T22:21:58.124Z,99535.78
2022-12-11T22:25:08.779Z,99536.31
2022-12-11T22:28:20.373Z,99527.56
2022-12-11T22:31:26.820Z,99534.34
2022-12-11T22:34:33.619Z,99540.97
2022-12-11T22:37:46.502Z,99536.47
2022-12-11T22:40:55.400Z,99545.03
2022-12-11T22:43:58.833Z,99547.34
2022-12-11T22:47:01.857Z,99546.28
2022-12-11T22:50:06.473Z,99548.75
2022-12-11T22:53:10.824Z,99552.00
2022-12-11T22:56:13.911Z,99543.94
2022-12-11T22:59:17.632Z,99556.41
2022-12-11T23:02:22.389Z,99554.44
2022-12-11T23:05:25.976Z,99556.81
2022-12-11T23:08:28.750Z,99551.00
2022-12-11T23:11:36.472Z,99540.75
2022-12-11T23:14:39.589Z,99542.63
2022-12-11T23:17:43.683Z,99545.88
2022-12-11T23:20:49.578Z,99548.25
2022-12-11T23:23:54.059Z,99553.47
2022-12-11T23:26:59.954Z,99560.09
2022-12-11T23:30:05.590Z,99560.69
2022-12-11T23:33:08.512Z,99564.03
2022-12-11T23:36:12.175Z,99558.72
2022-12-11T23:39:14.957Z,99568.78
2022-12-11T23:42:17.754Z,99565.25
2022-12-11T23:45:21.191Z,99560.22
2022-12-11T23:48:24.729Z,99568.00
2022-12-11T23:51:31.614Z,99558.34
2022-12-11T23:54:34.407Z,99557.75
2022-12-11T23:57:37.076Z,99558.44
